createdAt,value
2022-12-23T00:00:38.924Z,99527.03
2022-12-23T00:03:06.568Z,99527.38
2022-12-23T00:05:38.615Z,99528.19
2022-12-23T00:08:06.254Z,99540.09
2022-12-23T00:10:34.877Z,99548.00
2022-12-23T00:13:20.113Z,99543.69
2022-12-23T00:15:46.422Z,99547.31
2022-12-23T00:18:14.215Z,99537.38
2022-12-23T00:20:40.911Z,99532.16
2022-12-23T00:23:07.548Z,99528.59
2022-12-23T00:25:44.776Z,99519.81
2022-12-23T00:28:20.399Z,99520.28
2022-12-23T00:31:07.440Z,99532.16
2022-12-23T00:33:44.944Z,99530.50
2022-12-23T00:36:24.598Z,99541.69
2022-12-23T00:39:09.868Z,99553.25
2022-12-23T00:41:55.148Z,99554.34
2022-12-23T00:44:21.969Z,99545.56
2022-12-23T00:46:48.886Z,99547.19
2022-12-23T00:49:35.068Z,99553.09
2022-12-23T00:52:02.047Z,99557.41
2022-12-23T00:54:28.539Z,99564.97
2022-12-23T00:56:55.237Z,99566.94
2022-12-23T00:59:21.940Z,99579.69
2022-12-23T01:02:07.297Z,99564.22
2022-12-23T01:04:52.894Z,99570.22
2022-12-23T01:07:20.081Z,99582.91
2022-12-23T01:09:46.641Z,99586.16
2022-12-23T01:12:13.858Z,99588.41
2022-12-23T01:14:40.783Z,99586.22
2022-12-23T01:17:08.242Z,99587.13
2022-12-23T01:19:36.039Z,99598.00
2022-12-23T01:22:02.657Z,99595.84
2022-12-23T01:24:31.066Z,99600.03
2022-12-23T01:26:58.271Z,99605.97
2022-12-23T01:29:25.295Z,99613.06
2022-12-23T01:31:51.832Z,99612.44
2022-12-23T01:34:18.509Z,99616.66
2022-12-23T01:36:45.313Z,99610.69
2022-12-23T01:39:11.878Z,99613.06
2022-12-23T01:41:57.737Z,99617.88
2022-12-23T01:44:57.171Z,99621.03
2022-12-23T01:47:50.325Z,99626.50
2022-12-23T01:50:22.323Z,99624.50
2022-12-23T01:53:08.065Z,99626.56
2022-12-23T01:55:59.756Z,99630.53
2022-12-23T01:58:32.022Z,99637.72
2022-12-23T02:01:17.821Z,99635.72
2022-12-23T02:03:46.805Z,99630.53
2022-12-23T02:06:40.391Z,99642.44
2022-12-23T02:09:18.125Z,99636.06
2022-12-23T02:12:13.143Z,99643.97
2022-12-23T02:15:07.558Z,99644.06
2022-12-23T02:18:05.608Z,99645.56
2022-12-23T02:21:10.783Z,99654.97
2022-12-23T02:23:59.746Z,99653.13
2022-12-23T02:26:56.934Z,99646.03
2022-12-23T02:29:32.579Z,99644.78
2022-12-23T02:32:15.161Z,99644.84
2022-12-23T02:34:54.335Z,99656.00
2022-12-23T02:37:35.944Z,99660.00
2022-12-23T02:40:18.401Z,99661.91
2022-12-23T02:42:53.910Z,99660.16
2022-12-23T02:45:28.794Z,99666.16
2022-12-23T02:48:02.421Z,99660.72
2022-12-23T02:50:32.726Z,99668.34
2022-12-23T02:53:03.782Z,99660.19
2022-12-23T02:55:35.933Z,99661.75
2022-12-23T02:58:09.563Z,99673.50
2022-12-23T03:00:38.565Z,99680.31
2022-12-23T03:03:05.278Z,99674.75
2022-12-23T03:05:39.384Z,99678.06
2022-12-23T03:08:12.548Z,99689.50
2022-12-23T03:11:05.883Z,99678.25
2022-12-23T03:14:05.736Z,99690.91
2022-12-23T03:17:10.853Z,99698.00
2022-12-23T03:19:50.006Z,99707.94
2022-12-23T03:22:35.533Z,99721.00
2022-12-23T03:25:27.125Z,99727.56
2022-12-23T03:27:56.797Z,99723.41
2022-12-23T03:30:24.175Z,99719.13
2022-12-23T03:32:59.642Z,99725.41
2022-12-23T03:35:34.047Z,99731.50
2022-12-23T03:38:03.309Z,99736.75
2022-12-23T03:40:35.865Z,99728.91
2022-12-23T03:43:11.436Z,99736.09
2022-12-23T03:45:43.608Z,99731.41
2022-12-23T03:48:21.865Z,99734.66
2022-12-23T03:50:54.015Z,99732.97
2022-12-23T03:53:27.848Z,99733.84
2022-12-23T03:56:00.315Z,99737.75
2022-12-23T03:58:35.534Z,99743.28
2022-12-23T04:01:18.095Z,99733.84
2022-12-23T04:04:02.077Z,99726.59
2022-12-23T04:06:39.075Z,99733.78
2022-12-23T04:09:07.277Z,99737.38
2022-12-23T04:11:36.324Z,99727.03
2022-12-23T04:14:03.135Z,99718.63
2022-12-23T04:16:30.172Z,99723.06
2022-12-23T04:18:56.801Z,99711.50
2022-12-23T04:21:23.265Z,99716.28
2022-12-23T04:23:49.774Z,99714.72
2022-12-23T04:26:16.353Z,99715.09
2022-12-23T04:28:43.121Z,99717.78
2022-12-23T04:31:09.708Z,99720.50
2022-12-23T04:33:36.077Z,99722.16
2022-12-23T04:36:02.704Z,99721.03
2022-12-23T04:38:29.344Z,99714.06
2022-12-23T04:40:55.950Z,99724.75
2022-12-23T04:43:22.987Z,99718.78
2022-12-23T04:45:52.725Z,99720.78
2022-12-23T04:48:19.483Z,99733.78
2022-12-23T04:50:45.944Z,99718.50
2022-12-23T04:53:12.995Z,99717.59
2022-12-23T04:55:39.493Z,99719.50
2022-12-23T04:58:06.201Z,99735.00
2022-12-23T05:00:39.099Z,99742.06
2022-12-23T05:03:06.893Z,99744.97
2022-12-23T05:05:33.417Z,99743.47
2022-12-23T05:08:04.869Z,99742.13
2022-12-23T05:10:31.913Z,99752.00
2022-12-23T05:12:58.403Z,99734.13
2022-12-23T05:15:24.895Z,99744.78
2022-12-23T05:17:51.641Z,99732.53
2022-12-23T05:20:18.175Z,99747.22
2022-12-23T05:22:45.020Z,99745.59
2022-12-23T05:25:11.465Z,99743.19
2022-12-23T05:27:38.472Z,99732.06
2022-12-23T05:30:06.378Z,99739.66
2022-12-23T05:32:33.830Z,99749.91
2022-12-23T05:35:00.571Z,99744.69
2022-12-23T05:37:27.044Z,99750.66
2022-12-23T05:39:53.490Z,99762.63
2022-12-23T05:42:20.301Z,99755.94
2022-12-23T05:44:47.846Z,99755.97
2022-12-23T05:47:14.550Z,99763.81
2022-12-23T05:49:41.099Z,99752.00
2022-12-23T05:52:07.975Z,99761.53
2022-12-23T05:54:34.587Z,99758.91
2022-12-23T05:57:01.418Z,99766.38
2022-12-23T05:59:31.332Z,99770.19
2022-12-23T06:01:58.782Z,99775.78
2022-12-23T06:04:25.597Z,99782.16
2022-12-23T06:06:52.288Z,99777.72
2022-12-23T06:09:19.744Z,99778.88
2022-12-23T06:11:47.157Z,99785.97
2022-12-23T06:14:13.878Z,99783.19
2022-12-23T06:16:40.723Z,99788.72
2022-12-23T06:19:07.418Z,99785.50
2022-12-23T06:21:33.885Z,99783.63
2022-12-23T06:24:00.500Z,99785.59
2022-12-23T06:26:27.310Z,99776.91
2022-12-23T06:28:53.775Z,99776.38
2022-12-23T06:31:20.276Z,99782.28
2022-12-23T06:33:46.876Z,99782.38
2022-12-23T06:36:13.336Z,99779.16
2022-12-23T06:38:39.793Z,99772.44
2022-12-23T06:41:07.632Z,99765.66
2022-12-23T06:43:34.192Z,99757.31
2022-12-23T06:46:00.748Z,99754.50
2022-12-23T06:48:27.727Z,99763.03
2022-12-23T06:50:54.406Z,99750.97
2022-12-23T06:53:20.933Z,99754.84
2022-12-23T06:55:47.476Z,99755.59
2022-12-23T06:58:14.357Z,99758.06
2022-12-23T07:00:40.917Z,99763.19
2022-12-23T07:03:07.746Z,99764.44
2022-12-23T07:05:37.334Z,99754.44
2022-12-23T07:08:04.799Z,99752.06
2022-12-23T07:10:31.648Z,99755.84
2022-12-23T07:12:58.026Z,99756.19
2022-12-23T07:15:24.391Z,99767.25
2022-12-23T07:17:50.997Z,99779.53
2022-12-23T07:20:17.802Z,99785.41
2022-12-23T07:22:44.851Z,99802.47
2022-12-23T07:25:11.635Z,99805.25
2022-12-23T07:27:38.217Z,99800.06
2022-12-23T07:30:05.199Z,99814.75
2022-12-23T07:32:32.184Z,99825.84
2022-12-23T07:34:58.768Z,99817.88
2022-12-23T07:37:25.350Z,99823.81
2022-12-23T07:39:51.870Z,99823.41
2022-12-23T07:42:44.151Z,99818.66
2022-12-23T07:45:05.539Z,99811.47
2022-12-23T07:47:32.072Z,99811.28
2022-12-23T07:49:58.554Z,99800.06
2022-12-23T07:52:25.701Z,99804.91
2022-12-23T07:54:52.337Z,99803.19
2022-12-23T07:57:18.722Z,99813.84
2022-12-23T07:59:45.408Z,99803.00
2022-12-23T08:02:12.150Z,99808.63
2022-12-23T08:04:44.229Z,99807.38
2022-12-23T08:07:12.653Z,99805.41
2022-12-23T08:09:39.469Z,99803.31
2022-12-23T08:12:06.171Z,99809.00
2022-12-23T08:14:32.740Z,99806.25
2022-12-23T08:16:59.408Z,99811.00
2022-12-23T08:19:25.930Z,99803.84
2022-12-23T08:21:52.419Z,99803.16
2022-12-23T08:24:19.000Z,99807.97
2022-12-23T08:26:45.709Z,99801.50
2022-12-23T08:29:12.236Z,99809.31
2022-12-23T08:31:38.773Z,99804.53
2022-12-23T08:34:05.205Z,99801.84
2022-12-23T08:36:34.989Z,99795.28
2022-12-23T08:39:05.616Z,99793.97
2022-12-23T08:41:36.986Z,99788.81
2022-12-23T08:44:03.669Z,99809.59
2022-12-23T08:46:30.259Z,99801.47
2022-12-23T08:48:57.129Z,99806.94
2022-12-23T08:51:25.166Z,99806.00
2022-12-23T08:53:59.865Z,99809.97
2022-12-23T08:56:31.076Z,99804.97
2022-12-23T08:58:57.959Z,99816.88
2022-12-23T09:01:30.971Z,99805.91
2022-12-23T09:03:58.401Z,99799.97
2022-12-23T09:06:30.082Z,99802.78
2022-12-23T09:08:58.191Z,99806.00
2022-12-23T09:11:26.949Z,99807.19
2022-12-23T09:13:53.818Z,99796.91
2022-12-23T09:16:20.703Z,99790.16
2022-12-23T09:18:47.164Z,99790.69
2022-12-23T09:21:20.122Z,99787.16
2022-12-23T09:23:48.548Z,99789.81
2022-12-23T09:26:21.996Z,99784.69
2022-12-23T09:28:48.709Z,99783.63
2022-12-23T09:31:15.673Z,99787.22
2022-12-23T09:33:43.091Z,99791.28
2022-12-23T09:36:09.588Z,99786.47
2022-12-23T09:38:36.543Z,99786.69
2022-12-23T09:41:04.149Z,99794.19
2022-12-23T09:43:45.645Z,99781.78
2022-12-23T09:46:23.805Z,99774.31
2022-12-23T09:49:00.008Z,99780.50
2022-12-23T09:51:27.958Z,99768.91
2022-12-23T09:54:20.631Z,99772.09
2022-12-23T09:56:47.083Z,99755.38
2022-12-23T09:59:19.760Z,99749.81
2022-12-23T10:01:49.495Z,99750.00
2022-12-23T10:04:39.736Z,99757.66
2022-12-23T10:07:06.196Z,99749.28
2022-12-23T10:09:37.450Z,99752.91
2022-12-23T10:12:28.762Z,99756.06
2022-12-23T10:15:02.679Z,99745.03
2022-12-23T10:17:41.488Z,99733.56
2022-12-23T10:20:18.297Z,99734.38
2022-12-23T10:22:46.599Z,99730.84
2022-12-23T10:25:37.238Z,99710.25
2022-12-23T10:28:04.051Z,99719.13
2022-12-23T10:30:57.416Z,99710.84
2022-12-23T10:33:48.804Z,99700.94
2022-12-23T10:36:34.119Z,99693.09
2022-12-23T10:39:33.011Z,99683.53
2022-12-23T10:42:28.179Z,99652.03
2022-12-23T10:45:09.388Z,99632.63
2022-12-23T10:48:06.085Z,99641.81
2022-12-23T10:50:57.261Z,99643.03
2022-12-23T10:53:33.178Z,99640.25
2022-12-23T10:56:02.742Z,99630.59
2022-12-23T10:58:30.345Z,99641.69
2022-12-23T11:01:00.038Z,99641.25
2022-12-23T11:03:33.781Z,99643.25
2022-12-23T11:06:02.055Z,99638.06
2022-12-23T11:08:31.046Z,99633.34
2022-12-23T11:10:59.609Z,99636.50
2022-12-23T11:13:34.736Z,99630.56
2022-12-23T11:16:20.296Z,99616.66
2022-12-23T11:19:02.225Z,99614.25
2022-12-23T11:21:30.169Z,99625.47
2022-12-23T11:24:15.782Z,99624.59
2022-12-23T11:26:45.109Z,99633.28
2022-12-23T11:29:31.420Z,99630.16
2022-12-23T11:31:58.426Z,99627.72
2022-12-23T11:34:27.270Z,99616.13
2022-12-23T11:37:01.765Z,99601.78
2022-12-23T11:39:36.629Z,99599.09
2022-12-23T11:42:17.381Z,99598.25
2022-12-23T11:44:51.596Z,99592.75
2022-12-23T11:47:39.320Z,99586.81
2022-12-23T11:50:33.622Z,99578.38
2022-12-23T11:53:11.265Z,99582.69
2022-12-23T11:55:45.953Z,99559.34
2022-12-23T11:58:21.340Z,99549.41
2022-12-23T12:01:00.769Z,99539.56
2022-12-23T12:03:33.818Z,99538.06
2022-12-23T12:06:03.639Z,99523.31
2022-12-23T12:08:36.901Z,99509.50
2022-12-23T12:11:08.094Z,99492.03
2022-12-23T12:13:41.847Z,99474.16
2022-12-23T12:16:36.339Z,99469.78
2022-12-23T12:19:17.220Z,99461.00
2022-12-23T12:21:45.870Z,99461.84
2022-12-23T12:24:19.165Z,99449.16
2022-12-23T12:26:51.270Z,99435.25
2022-12-23T12:29:35.890Z,99419.38
2022-12-23T12:32:04.440Z,99428.88
2022-12-23T12:34:52.733Z,99434.84
2022-12-23T12:37:33.961Z,99443.97
2022-12-23T12:40:12.445Z,99435.63
2022-12-23T12:42:44.686Z,99434.03
2022-12-23T12:45:22.235Z,99418.53
2022-12-23T12:48:18.298Z,99425.31
2022-12-23T12:50:59.182Z,99408.63
2022-12-23T12:53:28.107Z,99374.44
2022-12-23T12:56:10.436Z,99401.88
2022-12-23T12:58:38.747Z,99397.09
2022-12-23T13:01:26.109Z,99370.47
2022-12-23T13:04:15.053Z,99379.63
2022-12-23T13:07:11.283Z,99402.28
2022-12-23T13:10:16.361Z,99373.66
2022-12-23T13:12:48.238Z,99374.88
2022-12-23T13:15:26.453Z,99325.97
2022-12-23T13:18:39.982Z,99321.97
2022-12-23T13:21:14.458Z,99358.56
2022-12-23T13:23:50.951Z,99349.81
2022-12-23T13:26:46.973Z,99344.25
2022-12-23T13:29:57.609Z,99345.06
2022-12-23T13:33:06.671Z,99340.28
2022-12-23T13:36:05.793Z,99336.69
2022-12-23T13:38:36.380Z,99331.53
2022-12-23T13:41:34.064Z,99324.34
2022-12-23T13:44:05.187Z,99330.31
2022-12-23T13:47:09.928Z,99307.25
2022-12-23T13:50:13.567Z,99293.34
2022-12-23T13:53:11.529Z,99287.78
2022-12-23T13:55:57.377Z,99277.03
2022-12-23T13:58:27.123Z,99283.78
2022-12-23T14:01:17.693Z,99276.63
2022-12-23T14:03:44.909Z,99274.25
2022-12-23T14:06:21.300Z,99279.78
2022-12-23T14:08:48.592Z,99285.38
2022-12-23T14:11:25.892Z,99265.47
2022-12-23T14:13:58.260Z,99269.03
2022-12-23T14:16:42.884Z,99270.19
2022-12-23T14:19:18.581Z,99270.22
2022-12-23T14:22:24.580Z,99276.56
2022-12-23T14:25:16.272Z,99257.50
2022-12-23T14:28:04.630Z,99257.88
2022-12-23T14:30:35.739Z,99251.88
2022-12-23T14:33:06.400Z,99244.75
2022-12-23T14:35:40.082Z,99246.72
2022-12-23T14:38:22.547Z,99247.88
2022-12-23T14:40:51.070Z,99246.25
2022-12-23T14:43:42.644Z,99243.47
2022-12-23T14:46:34.295Z,99232.31
2022-12-23T14:49:29.773Z,99229.53
2022-12-23T14:51:50.773Z,99234.69
2022-12-23T14:54:18.282Z,99243.91
2022-12-23T14:57:00.440Z,99224.09
2022-12-23T14:59:56.728Z,99228.09
2022-12-23T15:02:35.097Z,99235.66
2022-12-23T15:05:02.727Z,99245.59
2022-12-23T15:07:53.175Z,99247.22
2022-12-23T15:10:25.442Z,99253.56
2022-12-23T15:12:59.386Z,99251.16
2022-12-23T15:15:29.479Z,99249.97
2022-12-23T15:18:05.028Z,99257.13
2022-12-23T15:20:33.093Z,99238.81
2022-12-23T15:23:01.837Z,99231.25
2022-12-23T15:25:39.037Z,99251.13
2022-12-23T15:28:05.733Z,99272.97
2022-12-23T15:30:35.252Z,99263.06
2022-12-23T15:33:16.071Z,99254.34
2022-12-23T15:35:53.045Z,99261.09
2022-12-23T15:38:20.322Z,99276.56
2022-12-23T15:40:58.568Z,99265.44
2022-12-23T15:43:25.212Z,99259.41
2022-12-23T15:45:52.778Z,99265.34
2022-12-23T15:48:24.266Z,99255.41
2022-12-23T15:51:11.861Z,99276.13
2022-12-23T15:53:41.852Z,99266.97
2022-12-23T15:56:22.887Z,99278.50
2022-12-23T15:58:52.896Z,99274.22
2022-12-23T16:01:22.040Z,99276.63
2022-12-23T16:03:56.874Z,99280.16
2022-12-23T16:06:35.657Z,99280.59
2022-12-23T16:09:22.926Z,99287.78
2022-12-23T16:12:03.963Z,99292.53
2022-12-23T16:14:30.350Z,99293.75
2022-12-23T16:17:22.692Z,99301.31
2022-12-23T16:19:53.723Z,99305.69
2022-12-23T16:22:20.235Z,99303.28
2022-12-23T16:24:57.026Z,99306.88
2022-12-23T16:27:40.416Z,99313.22
2022-12-23T16:30:21.444Z,99308.88
2022-12-23T16:32:57.335Z,99300.53
2022-12-23T16:35:29.014Z,99296.53
2022-12-23T16:38:16.951Z,99308.06
2022-12-23T16:40:46.745Z,99312.44
2022-12-23T16:43:13.689Z,99324.72
2022-12-23T16:45:41.130Z,99328.72
2022-12-23T16:48:17.024Z,99329.94
2022-12-23T16:50:45.401Z,99333.50
2022-12-23T16:53:13.291Z,99341.41
2022-12-23T16:55:44.411Z,99371.25
2022-12-23T16:58:15.071Z,99366.06
2022-12-23T17:00:42.570Z,99374.84
2022-12-23T17:03:15.685Z,99392.72
2022-12-23T17:05:42.147Z,99383.09
2022-12-23T17:08:09.567Z,99408.94
2022-12-23T17:10:37.443Z,99408.13
2022-12-23T17:13:05.274Z,99410.66
2022-12-23T17:15:32.285Z,99409.13
2022-12-23T17:17:59.942Z,99417.19
2022-12-23T17:20:26.728Z,99410.97
2022-12-23T17:22:57.490Z,99424.81
2022-12-23T17:25:26.668Z,99428.75
2022-12-23T17:27:55.388Z,99438.06
2022-12-23T17:30:24.690Z,99432.31
2022-12-23T17:32:56.424Z,99435.53
2022-12-23T17:35:24.173Z,99441.19
2022-12-23T17:37:52.412Z,99447.44
2022-12-23T17:40:19.562Z,99442.50
2022-12-23T17:42:47.438Z,99459.00
2022-12-23T17:45:22.956Z,99448.63
2022-12-23T17:47:49.455Z,99455.09
2022-12-23T17:50:16.036Z,99458.25
2022-12-23T17:52:42.970Z,99461.41
2022-12-23T17:55:21.018Z,99456.97
2022-12-23T17:57:48.063Z,99467.09
2022-12-23T18:00:25.146Z,99467.03
2022-12-23T18:02:56.995Z,99478.19
2022-12-23T18:05:26.644Z,99467.47
2022-12-23T18:07:54.818Z,99471.91
2022-12-23T18:10:25.259Z,99472.97
2022-12-23T18:12:56.922Z,99474.19
2022-12-23T18:15:32.712Z,99482.56
2022-12-23T18:17:59.411Z,99480.56
2022-12-23T18:20:25.986Z,99492.97
2022-12-23T18:22:54.135Z,99489.19
2022-12-23T18:25:24.095Z,99503.31
2022-12-23T18:27:52.029Z,99497.19
2022-12-23T18:30:19.827Z,99503.59
2022-12-23T18:32:47.430Z,99503.56
2022-12-23T18:35:24.791Z,99506.84
2022-12-23T18:37:51.642Z,99507.53
2022-12-23T18:40:18.333Z,99515.69
2022-12-23T18:42:45.194Z,99510.63
2022-12-23T18:45:24.964Z,99516.31
2022-12-23T18:47:51.536Z,99509.19
2022-12-23T18:50:18.353Z,99518.78
2022-12-23T18:52:46.454Z,99519.56
2022-12-23T18:55:13.484Z,99518.47
2022-12-23T18:57:40.702Z,99515.38
2022-12-23T19:00:13.446Z,99521.63
2022-12-23T19:02:40.380Z,99528.97
2022-12-23T19:05:07.460Z,99530.22
2022-12-23T19:07:34.622Z,99527.09
2022-12-23T19:10:01.131Z,99536.69
2022-12-23T19:12:27.847Z,99541.88
2022-12-23T19:14:54.369Z,99540.28
2022-12-23T19:17:20.759Z,99537.50
2022-12-23T19:19:47.264Z,99544.22
2022-12-23T19:22:13.740Z,99539.88
2022-12-23T19:24:52.052Z,99547.94
2022-12-23T19:27:27.117Z,99547.91
2022-12-23T19:29:53.655Z,99543.97
2022-12-23T19:32:20.058Z,99547.19
2022-12-23T19:34:46.839Z,99553.13
2022-12-23T19:37:13.542Z,99560.72
2022-12-23T19:39:41.267Z,99559.81
2022-12-23T19:42:08.451Z,99566.06
2022-12-23T19:44:35.364Z,99571.75
2022-12-23T19:47:03.750Z,99564.59
2022-12-23T19:49:30.381Z,99576.22
2022-12-23T19:51:57.151Z,99587.41
2022-12-23T19:54:23.831Z,99598.16
2022-12-23T19:56:51.430Z,99598.97
2022-12-23T19:59:18.833Z,99603.31
2022-12-23T20:01:45.610Z,99603.31
2022-12-23T20:04:12.536Z,99612.88
2022-12-23T20:06:40.982Z,99606.13
2022-12-23T20:09:11.045Z,99611.28
2022-12-23T20:11:43.489Z,99622.47
2022-12-23T20:14:11.034Z,99629.25
2022-12-23T20:16:38.741Z,99641.09
2022-12-23T20:19:06.068Z,99646.31
2022-12-23T20:21:33.973Z,99649.91
2022-12-23T20:24:00.665Z,99664.31
2022-12-23T20:26:28.951Z,99663.50
2022-12-23T20:28:57.265Z,99671.47
2022-12-23T20:31:26.692Z,99681.03
2022-12-23T20:33:54.001Z,99678.66
2022-12-23T20:36:24.176Z,99685.44
2022-12-23T20:38:51.930Z,99691.41
2022-12-23T20:41:21.555Z,99679.81
2022-12-23T20:44:02.781Z,99677.41
2022-12-23T20:46:35.082Z,99673.81
2022-12-23T20:49:02.246Z,99687.34
2022-12-23T20:51:28.731Z,99686.56
2022-12-23T20:53:59.713Z,99688.94
2022-12-23T20:56:27.660Z,99687.75
2022-12-23T20:58:54.981Z,99693.72
2022-12-23T21:01:31.202Z,99696.88
2022-12-23T21:03:59.727Z,99690.13
2022-12-23T21:06:28.990Z,99711.22
2022-12-23T21:08:58.117Z,99713.63
2022-12-23T21:11:27.166Z,99700.91
2022-12-23T21:13:53.881Z,99712.13
2022-12-23T21:16:20.609Z,99708.94
2022-12-23T21:18:53.179Z,99710.94
2022-12-23T21:21:23.462Z,99720.03
2022-12-23T21:23:50.228Z,99717.69
2022-12-23T21:26:22.967Z,99725.69
2022-12-23T21:28:50.669Z,99719.31
2022-12-23T21:31:19.738Z,99728.88
2022-12-23T21:33:48.508Z,99731.28
2022-12-23T21:36:20.297Z,99738.06
2022-12-23T21:38:48.468Z,99753.19
2022-12-23T21:41:17.534Z,99763.56
2022-12-23T21:43:44.214Z,99767.13
2022-12-23T21:46:13.823Z,99757.59
2022-12-23T21:48:41.345Z,99749.19
2022-12-23T21:51:13.141Z,99754.41
2022-12-23T21:53:40.961Z,99754.00
2022-12-23T21:56:10.993Z,99769.94
2022-12-23T21:58:37.532Z,99765.16
2022-12-23T22:01:09.390Z,99775.91
2022-12-23T22:03:36.690Z,99782.72
2022-12-23T22:06:08.435Z,99779.91
2022-12-23T22:08:37.032Z,99779.09
2022-12-23T22:11:08.761Z,99773.53
2022-12-23T22:13:36.337Z,99781.50
2022-12-23T22:16:03.771Z,99776.69
2022-12-23T22:18:31.567Z,99788.28
2022-12-23T22:20:57.942Z,99786.28
2022-12-23T22:23:24.437Z,99807.03
2022-12-23T22:25:54.967Z,99813.41
2022-12-23T22:28:22.058Z,99808.59
2022-12-23T22:30:48.935Z,99815.78
2022-12-23T22:33:15.369Z,99831.75
2022-12-23T22:35:42.598Z,99828.56
2022-12-23T22:38:09.428Z,99829.38
2022-12-23T22:40:36.042Z,99838.91
2022-12-23T22:43:03.147Z,99846.88
2022-12-23T22:45:29.641Z,99855.72
2022-12-23T22:47:57.460Z,99853.69
2022-12-23T22:50:23.897Z,99863.66
2022-12-23T22:52:50.699Z,99867.63
2022-12-23T22:55:17.210Z,99856.44
2022-12-23T22:57:43.792Z,99869.25
2022-12-23T23:00:12.491Z,99865.66
2022-12-23T23:02:39.788Z,99872.41
2022-12-23T23:05:12.463Z,99878.00
2022-12-23T23:07:39.927Z,99892.38
2022-12-23T23:10:08.370Z,99896.78
2022-12-23T23:12:35.174Z,99887.59
2022-12-23T23:15:01.606Z,99890.38
2022-12-23T23:17:28.881Z,99897.97
2022-12-23T23:19:55.707Z,99905.53
2022-12-23T23:22:23.652Z,99899.50
2022-12-23T23:24:50.970Z,99905.09
2022-12-23T23:27:17.552Z,99907.09
2022-12-23T23:29:44.478Z,99907.50
2022-12-23T23:32:11.509Z,99902.69
2022-12-23T23:34:38.130Z,99910.66
2022-12-23T23:37:05.100Z,99907.44
2022-12-23T23:39:31.992Z,99907.06
2022-12-23T23:41:58.899Z,99907.03
2022-12-23T23:44:25.332Z,99912.25
2022-12-23T23:46:51.946Z,99923.78
2022-12-23T23:49:18.447Z,99917.78
2022-12-23T23:51:45.032Z,99928.97
2022-12-23T23:54:11.878Z,99935.75
2022-12-23T23:56:39.665Z,99938.09
2022-12-23T23:59:07.079Z,99940.84
